• Join FlightAware (Why Join?)
  • Login
  • US Flag 
08:28AM EDT


 

Airport Tracker/Info


-or-


 

Live Flight TrackerFlight Track Log ✈ TCF3494 ✈ 23-Jul-2013 ✈ KORD - KLGA

Flight Track Log - Related Links

Times and Time Zones

All times are in EDT time to prevent confusion due to time zone crossing. See the TCF3494 flight status page for this flight to view local times or setup timezone preferences in your user account.

Time Position Orientation Groundspeed Altitude Reporting Facility
EDT Latitude Longitude Course Direction KTS MPH feet Rate Location/Type
09:17PM 42.0000 -87.8667 90° East 152 175 2,400  Level Chicago TRACON
09:18PM 42.0000 -87.8000 90° East 225 259 4,100 2,340 Climbing Chicago TRACON
09:19PM 41.9958 -87.6786 93° East 273 314 7,600 2,820 Climbing Chicago Center
09:20PM 41.9428 -87.2646 95° East  Level FlightAware Approximate
09:20PM 41.9858 -87.5672 97° East 297 342 10,400  Level Chicago Center
09:21PM 41.9333 -87.1059 90° East  Level FlightAware Approximate
09:21PM 41.9772 -87.4458 95° East 319 367 13,200  Level Chicago Center
09:22PM 41.9333 -86.9466 90° East  Level FlightAware Approximate
09:22PM 41.9672 -87.3208 96° East 333 383 15,700  Level Chicago Center
09:23PM 41.9550 -87.1592 96° East 354 407 18,700 2,580 Climbing Chicago Center
09:24PM 41.9453 -87.0208 95° East 368 423 21,100 2,160 Climbing Chicago Center
09:25PM 41.9475 -86.8764 89° East 382 440 23,200 1,860 Climbing Chicago Center
09:26PM 41.9492 -86.7267 89° East 395 455 25,000 1,740 Climbing Chicago Center
09:27PM 41.9511 -86.5689 89° East 411 473 26,900 1,560 Climbing Chicago Center
09:28PM 41.9528 -86.4108 89° East 419 482 28,300 1,020 Climbing Chicago Center
09:29PM 41.9536 -86.2436 90° East 440 506 29,100 960 Climbing Chicago Center
09:31PM 41.9111 -86.0417 106° East 472 543 30,300 960 Climbing Chicago Center
09:32PM 41.8569 -85.8778 114° Southeast 482 555 31,200 960 Climbing Chicago Center
09:33PM 41.8036 -85.7069 113° Southeast 494 568 32,300 960 Climbing Chicago Center
09:34PM 41.7531 -85.5319 111° Southeast 500 575 33,300 960 Climbing Chicago Center
09:35PM 41.7353 -85.3356 97° East 522 601 34,300 780 Climbing Chicago Center
09:36PM 41.7269 -85.1467 93° East 511 588 35,000 300 Climbing Chicago Center
09:37PM 41.7200 -84.9586 93° East 500 575 35,000  Level Chicago Center
09:38PM 41.7128 -84.7686 93° East 512 589 35,000  Level Chicago Center
09:39PM 41.7036 -84.5433 93° East 507 583 35,000  Level Chicago Center
09:40PM 41.6961 -84.3561 93° East 507 583 35,000  Level Chicago Center
09:41PM 41.6881 -84.1681 93° East 507 583 35,000  Level Chicago Center
09:42PM 41.6789 -83.9789 94° East 510 587 35,000  Level Chicago Center
09:43PM 41.6717 -83.7894 93° East 513 590 35,000  Level Chicago Center
09:44PM 41.6622 -83.6003 94° East 511 588 35,000  Level Chicago Center
09:45PM 41.6517 -83.4111 94° East 512 589 35,000  Level Chicago Center
09:46PM 41.6406 -83.1836 94° East 511 588 35,000  Level Chicago Center
09:47PM 41.6303 -82.9939 94° East 513 590 35,000  Level Chicago Center
09:48PM 41.6161 -82.7606 95° East 515 593 35,000  Level Cleveland Center
09:49PM 41.6050 -82.5742 94° East 515 593 35,000  Level Cleveland Center
09:50PM 41.5956 -82.3822 94° East 515 593 35,000  Level Cleveland Center
09:51PM 41.5839 -82.1933 95° East 520 598 35,000  Level Cleveland Center
09:52PM 41.5717 -82.0069 95° East 515 593 35,000  Level Cleveland Center
09:53PM 41.5611 -81.8375 95° East 510 587 35,000  Level Cleveland Center
09:54PM 41.5506 -81.6514 94° East 510 587 35,000  Level Cleveland Center
09:55PM 41.5375 -81.4625 95° East 510 587 35,000  Level Cleveland Center
09:56PM 41.5244 -81.2542 95° East 504 580 35,000  Level Cleveland Center
09:57PM 41.5086 -81.0656 96° East 499 574 35,000  Level Cleveland Center
09:58PM 41.4928 -80.8825 97° East 508 585 35,000  Level Cleveland Center
09:59PM 41.4742 -80.6939 97° East 508 585 35,000  Level Cleveland Center
10:00PM 41.4575 -80.5083 97° East 503 579 35,000  Level Cleveland Center
10:01PM 41.4447 -80.3450 96° East 503 579 35,000 120 Level Cleveland Center
10:02PM 41.4278 -80.1622 97° East 503 579 35,300 600 Climbing Cleveland Center
10:03PM 41.4058 -79.9575 98° East 503 579 36,300 720 Climbing Cleveland Center
10:04PM 41.3881 -79.7750 97° East 503 579 36,800 300 Climbing Cleveland Center
10:05PM 41.3722 -79.6036 97° East 510 587 37,000 60 Climbing Cleveland Center
10:06PM 41.3514 -79.4047 98° East 510 587 37,000  Level Cleveland Center
10:07PM 41.3308 -79.2228 98° East 504 580 37,000  Level Cleveland Center
10:08PM 41.3139 -79.0378 97° East 499 574 37,000  Level Cleveland Center
10:09PM 41.2944 -78.8475 98° East 505 581 37,000  Level Cleveland Center
10:10PM 41.2747 -78.6575 98° East 517 595 37,000  Level Cleveland Center
10:11PM 41.2503 -78.4619 99° East 524 603 37,000  Level Cleveland Center
10:12PM 41.2275 -78.2475 98° East 530 610 37,000 -1,260 Level New York Center
10:13PM 41.2044 -78.0519 99° East 525 604 34,300 -2,040 Descending New York Center
10:14PM 41.1800 -77.8672 100° East 520 598 33,000 -660 Descending New York Center
10:15PM 41.1558 -77.6800 100° East 520 598 33,000  Level New York Center
10:16PM 41.1314 -77.4844 99° East 520 598 33,000  Level New York Center
10:17PM 41.1069 -77.2919 100° East 527 606 33,000 -720 Level New York Center
10:18PM 41.0817 -77.1025 100° East 527 606 31,600 -2,100 Descending New York Center
10:19PM 41.0558 -76.9183 100° East 521 600 28,900 -2,700 Descending New York Center
10:20PM 41.0317 -76.7428 100° East 501 577 26,300 -2,460 Descending New York Center
10:21PM 41.0003 -76.5778 104° East 474 545 23,900 -2,340 Descending New York Center
10:22PM 40.9639 -76.4264 108° East 460 529 21,700 -2,040 Descending New York Center
10:23PM 40.9269 -76.2803 108° East 432 497 19,900 -2,280 Descending New York Center
10:24PM 40.8922 -76.1267 107° East 404 465 17,200 -2,040 Descending New York Center
10:25PM 40.8608 -75.9897 107° East 392 451 15,900 -1,380 Descending New York Center
10:26PM 40.8325 -75.8778 108° East 379 436 14,500 -1,440 Descending New York Center
10:27PM 40.7967 -75.7381 109° East 366 421 13,100 -720 Descending New York Center
10:28PM 40.7664 -75.6125 108° East 360 414 13,100  Level New York Center
10:29PM 40.7294 -75.5003 113° Southeast 360 414 13,100  Level New York Center
10:30PM 40.6883 -75.3772 114° Southeast 365 420 13,100 -60 Level New York Center
10:31PM 40.6472 -75.2539 114° Southeast 365 420 13,000 -720 Descending New York Center
10:32PM 40.6044 -75.1200 113° Southeast 358 412 11,700 -1,500 Descending New York Center
10:33PM 40.5708 -75.0139 113° Southeast 353 406 10,000 -840 Descending New York Center
10:34PM 40.5317 -74.8833 112° Southeast 353 406 10,100  Climbing New York Center
10:35PM 40.5000 -74.7833 113° Southeast 350 403 10,000 -60 Descending New York TRACON
10:36PM 40.4667 -74.6667 111° Southeast 352 405 10,000  Level New York TRACON
10:37PM 40.4500 -74.5333 99° East 352 405 10,000  Level New York TRACON
10:38PM 40.4833 -74.4167 69° East 346 398 10,000 -600 Level New York TRACON
10:39PM 40.5167 -74.3167 66° East 307 353 8,900 -1,380 Descending New York TRACON
10:40PM 40.5500 -74.2167 66° East 295 339 7,300 -1,620 Descending New York TRACON
10:41PM 40.5833 -74.1167 66° East 282 325 5,500 -1,740 Descending New York TRACON
10:42PM 40.6333 -74.0500 45° Northeast 269 310 3,900 -1,500 Descending New York TRACON
10:43PM 40.6833 -73.9667 52° Northeast 254 292 2,600 -840 Descending New York TRACON
10:44PM 40.7167 -73.9167 49° Northeast 187 215 2,200 -420 Descending New York TRACON